Time;durP1;ratioP1;P1;durP2;ratioP2;P2;SDS_P1;SDS_P2;PMS_P1;PMS_P2;Temp;Humidity;BMP_temperature;BMP_pressure;BME280_temperature;BME280_humidity;BME280_pressure;Samples;Min_cycle;Max_cycle;Signal;HPM_P1;HPM_P2
2022/06/26 00:00:00;;;;;;;2.30;1.30;;;19.60;64.90;;;;;;5034904;28;20096;-79
2022/06/26 00:02:26;;;;;;;2.13;1.20;;;19.50;65.10;;;;;;5016954;28;20029;-79
2022/06/26 00:04:51;;;;;;;2.90;1.02;;;19.50;65.40;;;;;;5034858;28;20025;-79
2022/06/26 00:07:17;;;;;;;1.70;1.10;;;19.40;65.70;;;;;;5034779;28;20029;-78
2022/06/26 00:09:43;;;;;;;3.53;1.60;;;19.40;66.30;;;;;;5034684;28;20025;-79
2022/06/26 00:12:09;;;;;;;5.05;1.33;;;19.30;66.50;;;;;;5034776;28;20108;-78
2022/06/26 00:14:34;;;;;;;1.63;1.20;;;19.30;66.60;;;;;;5034611;28;20033;-78
2022/06/26 00:17:00;;;;;;;4.40;1.30;;;19.20;67.30;;;;;;5016828;28;20028;-78
2022/06/26 00:19:26;;;;;;;1.13;1.00;;;19.30;67.50;;;;;;5034177;28;20025;-78
2022/06/26 00:21:51;;;;;;;2.70;1.17;;;19.20;67.90;;;;;;5034419;28;20049;-79
2022/06/26 00:24:17;;;;;;;1.60;1.35;;;19.20;67.80;;;;;;5034409;28;20036;-79
2022/06/26 00:26:43;;;;;;;1.23;1.13;;;19.30;68.20;;;;;;5034346;28;20478;-80
2022/06/26 00:29:09;;;;;;;1.48;1.15;;;19.20;68.60;;;;;;5034385;28;20075;-79
2022/06/26 00:31:34;;;;;;;3.45;1.15;;;19.30;68.70;;;;;;5034390;28;20017;-79
2022/06/26 00:34:00;;;;;;;1.02;0.80;;;19.30;69.10;;;;;;5016564;28;20394;-79
2022/06/26 00:36:26;;;;;;;2.50;1.27;;;19.20;69.90;;;;;;5034161;28;20022;-79
2022/06/26 00:38:52;;;;;;;3.20;1.30;;;19.20;70.40;;;;;;5034126;28;20033;-79
2022/06/26 00:41:18;;;;;;;1.10;1.00;;;19.20;70.40;;;;;;5034110;28;20097;-80
2022/06/26 00:43:43;;;;;;;2.30;1.00;;;19.20;70.30;;;;;;5034028;28;20120;-80
2022/06/26 00:46:09;;;;;;;1.38;1.00;;;19.30;70.30;;;;;;5034090;28;20491;-79
2022/06/26 00:48:34;;;;;;;2.58;0.70;;;19.40;70.40;;;;;;5033986;28;20064;-80
2022/06/26 00:51:00;;;;;;;1.95;0.80;;;19.40;69.80;;;;;;5012771;28;20053;-80
2022/06/26 00:53:26;;;;;;;2.75;0.77;;;19.40;69.60;;;;;;5013993;28;20037;-79
2022/06/26 00:55:52;;;;;;;2.97;1.15;;;19.50;69.90;;;;;;5029384;28;20034;-79
2022/06/26 00:58:18;;;;;;;2.97;1.08;;;19.60;72.10;;;;;;5014055;28;20026;-79
2022/06/26 01:00:43;;;;;;;1.90;1.15;;;19.60;72.10;;;;;;5014194;28;20108;-81
2022/06/26 01:03:09;;;;;;;1.77;0.98;;;19.60;72.70;;;;;;5029096;28;20394;-79
2022/06/26 01:05:35;;;;;;;1.92;1.20;;;19.60;73.00;;;;;;5013960;28;20101;-80
2022/06/26 01:08:01;;;;;;;2.55;1.23;;;19.60;72.40;;;;;;5013902;28;20068;-79
2022/06/26 01:10:27;;;;;;;1.15;1.00;;;19.50;73.40;;;;;;5013820;28;20109;-80
2022/06/26 01:12:54;;;;;;;3.22;1.13;;;19.40;72.10;;;;;;5013890;28;20465;-79
2022/06/26 01:15:20;;;;;;;2.95;1.10;;;19.30;71.90;;;;;;5013852;28;20030;-79
2022/06/26 01:17:46;;;;;;;2.90;0.93;;;19.30;72.10;;;;;;5013757;28;20109;-79
2022/06/26 01:20:12;;;;;;;0.90;0.80;;;19.30;71.70;;;;;;5013698;28;20073;-79
2022/06/26 01:22:37;;;;;;;2.45;0.82;;;19.20;72.00;;;;;;5013500;28;20517;-80
2022/06/26 01:25:04;;;;;;;1.73;0.90;;;19.20;71.90;;;;;;5013706;28;20080;-80
2022/06/26 01:27:29;;;;;;;0.85;0.57;;;19.30;72.00;;;;;;5013596;28;20376;-79
2022/06/26 01:29:55;;;;;;;2.20;0.88;;;19.30;72.40;;;;;;5013058;28;20036;-79
2022/06/26 01:32:21;;;;;;;0.60;0.60;;;19.40;72.40;;;;;;5028570;28;20089;-79
2022/06/26 01:34:46;;;;;;;5.85;0.80;;;19.40;71.30;;;;;;5013438;28;20018;-79
2022/06/26 01:37:12;;;;;;;0.80;0.75;;;19.50;71.20;;;;;;5013416;28;20569;-79
2022/06/26 01:39:37;;;;;;;2.35;0.60;;;19.50;71.00;;;;;;5013583;28;20476;-79
2022/06/26 01:42:03;;;;;;;2.10;1.00;;;19.40;71.20;;;;;;5013410;28;20455;-79
2022/06/26 01:44:29;;;;;;;0.65;0.65;;;19.40;72.90;;;;;;5013312;28;20415;-79
2022/06/26 01:46:54;;;;;;;4.13;1.10;;;19.40;71.80;;;;;;5013440;28;20018;-80
2022/06/26 01:49:23;;;;;;;0.70;0.70;;;19.40;71.80;;;;;;5028434;28;20046;-78
2022/06/26 01:51:48;;;;;;;1.33;0.85;;;19.40;72.10;;;;;;5013406;28;20017;-80
2022/06/26 01:54:16;;;;;;;1.88;1.17;;;19.30;72.40;;;;;;5028680;28;20545;-80
2022/06/26 01:56:42;;;;;;;1.95;0.95;;;19.20;73.70;;;;;;5013318;28;20080;-80
2022/06/26 01:59:08;;;;;;;2.22;0.80;;;19.10;74.00;;;;;;5013388;28;20030;-80
2022/06/26 02:01:34;;;;;;;2.10;0.70;;;19.10;74.40;;;;;;5013177;28;20022;-79
2022/06/26 02:03:59;;;;;;;1.50;1.00;;;19.10;74.40;;;;;;5013096;28;20037;-79
2022/06/26 02:06:25;;;;;;;1.58;1.10;;;19.10;74.70;;;;;;5013154;28;20029;-79
2022/06/26 02:08:50;;;;;;;1.52;1.00;;;19.10;75.80;;;;;;5013281;28;20080;-80
2022/06/26 02:14:00;;;;;;;0.70;0.70;;;19.00;76.20;;;;;;5013359;28;20029;-79
2022/06/26 02:16:29;;;;;;;2.53;1.20;;;19.00;76.40;;;;;;5013149;28;20022;-80
2022/06/26 02:18:56;;;;;;;1.40;0.90;;;19.00;77.40;;;;;;5013201;28;20037;-79
2022/06/26 02:21:25;;;;;;;2.53;1.23;;;18.90;78.20;;;;;;5012997;28;20018;-79
2022/06/26 02:23:52;;;;;;;1.17;1.08;;;18.80;77.20;;;;;;5012884;28;20037;-80
2022/06/26 02:26:19;;;;;;;3.05;1.45;;;18.90;77.10;;;;;;5012922;28;20053;-79
2022/06/26 02:28:46;;;;;;;2.67;1.20;;;18.80;77.40;;;;;;5028078;28;20034;-79
2022/06/26 02:31:12;;;;;;;1.58;1.25;;;18.80;77.60;;;;;;5012813;28;20071;-79
2022/06/26 02:33:38;;;;;;;1.35;1.00;;;18.80;77.40;;;;;;5012918;28;20533;-79
2022/06/26 02:36:06;;;;;;;2.47;1.30;;;18.70;77.60;;;;;;5012898;28;20018;-80
2022/06/26 02:38:32;;;;;;;3.10;1.25;;;18.70;79.60;;;;;;5012820;28;20030;-80
2022/06/26 02:40:57;;;;;;;1.30;1.10;;;18.60;78.60;;;;;;5012909;28;20022;-79
2022/06/26 02:43:23;;;;;;;1.95;1.05;;;18.70;78.60;;;;;;5016165;28;20045;-80
2022/06/26 02:45:53;;;;;;;3.03;0.80;;;18.70;78.40;;;;;;5016651;28;20387;-80
2022/06/26 02:48:19;;;;;;;2.30;1.17;;;18.70;78.10;;;;;;5016527;28;20026;-79
2022/06/26 02:50:45;;;;;;;1.20;1.08;;;18.80;77.60;;;;;;5031190;28;20052;-80
2022/06/26 02:53:11;;;;;;;2.10;1.10;;;18.80;77.70;;;;;;5036125;28;20021;-80
2022/06/26 02:55:36;;;;;;;1.58;0.93;;;18.80;77.90;;;;;;5036192;28;20028;-79
2022/06/26 02:58:03;;;;;;;3.05;1.17;;;18.80;77.90;;;;;;5036187;28;20033;-80
2022/06/26 03:00:29;;;;;;;1.80;1.27;;;18.80;77.90;;;;;;5036329;28;20021;-79
2022/06/26 03:02:54;;;;;;;1.60;1.00;;;18.70;78.00;;;;;;5035947;28;20120;-80
2022/06/26 03:05:20;;;;;;;1.27;0.90;;;18.70;78.00;;;;;;5039440;28;20025;-80
2022/06/26 03:07:46;;;;;;;2.83;1.67;;;18.70;78.20;;;;;;5036360;28;20444;-80
2022/06/26 03:10:11;;;;;;;2.05;1.00;;;18.70;78.30;;;;;;5035859;28;20466;-79
2022/06/26 03:12:45;;;;;;;1.23;0.90;;;18.70;78.30;;;;;;5035725;28;20030;-79
2022/06/26 03:15:11;;;;;;;0.88;0.80;;;18.70;78.10;;;;;;5035803;28;20026;-79
2022/06/26 03:17:37;;;;;;;2.17;0.90;;;18.60;77.30;;;;;;5035763;28;20029;-79
2022/06/26 03:20:06;;;;;;;4.30;0.95;;;18.60;77.20;;;;;;5035855;28;20466;-80
2022/06/26 03:22:31;;;;;;;1.20;1.00;;;18.50;77.40;;;;;;5035427;28;20029;-80
2022/06/26 03:24:57;;;;;;;2.83;0.82;;;18.40;77.90;;;;;;5035689;28;20378;-79
2022/06/26 03:27:22;;;;;;;1.48;0.90;;;18.30;78.80;;;;;;5035382;28;20056;-79
2022/06/26 03:29:48;;;;;;;1.00;0.90;;;18.20;79.20;;;;;;5017639;28;20048;-79
2022/06/26 03:32:13;;;;;;;1.83;0.90;;;18.20;79.00;;;;;;5035458;28;20034;-80
2022/06/26 03:34:39;;;;;;;2.97;0.93;;;18.20;78.70;;;;;;5035360;28;20021;-79
2022/06/26 03:37:05;;;;;;;1.38;1.08;;;18.30;78.90;;;;;;5035431;28;20025;-79
2022/06/26 03:39:30;;;;;;;1.05;0.70;;;18.30;78.60;;;;;;5035416;28;20071;-79
2022/06/26 03:42:01;;;;;;;0.85;0.77;;;18.40;78.30;;;;;;5035083;28;20494;-79
2022/06/26 03:44:28;;;;;;;0.98;0.88;;;18.50;78.20;;;;;;5035299;28;20030;-79
2022/06/26 03:46:54;;;;;;;4.57;1.08;;;18.50;78.20;;;;;;5035137;28;20022;-79
2022/06/26 03:49:20;;;;;;;1.70;1.10;;;18.50;78.10;;;;;;5034964;28;20053;-80
2022/06/26 03:51:46;;;;;;;1.85;0.88;;;18.50;78.30;;;;;;5035093;28;20131;-79
2022/06/26 03:54:11;;;;;;;2.40;1.10;;;18.60;78.10;;;;;;5034254;28;20104;-80
2022/06/26 03:56:37;;;;;;;1.55;1.10;;;18.50;78.30;;;;;;5035023;28;20029;-79
2022/06/26 03:59:03;;;;;;;4.47;1.17;;;18.40;78.70;;;;;;5035008;28;20429;-79
2022/06/26 04:01:28;;;;;;;0.95;0.82;;;18.40;79.20;;;;;;5034897;28;20596;-79
2022/06/26 04:03:54;;;;;;;1.48;1.30;;;18.30;79.50;;;;;;5017034;28;20041;-80
2022/06/26 04:06:19;;;;;;;1.30;0.95;;;18.30;79.60;;;;;;5034775;28;20064;-79
2022/06/26 04:08:45;;;;;;;1.85;1.10;;;18.20;79.50;;;;;;5034807;28;20406;-79
2022/06/26 04:11:10;;;;;;;1.10;1.00;;;18.30;79.80;;;;;;5034714;28;20458;-79
2022/06/26 04:13:36;;;;;;;1.55;0.80;;;18.30;79.90;;;;;;5034687;28;20056;-79
2022/06/26 04:16:01;;;;;;;2.55;1.00;;;18.30;79.90;;;;;;5034639;28;20018;-79
2022/06/26 04:18:27;;;;;;;1.20;1.10;;;18.40;79.70;;;;;;5034486;28;20030;-80
2022/06/26 04:20:53;;;;;;;2.92;1.50;;;18.40;79.50;;;;;;5016769;28;20025;-79
2022/06/26 04:23:18;;;;;;;1.65;1.20;;;18.50;79.20;;;;;;5034437;28;20037;-80
2022/06/26 04:25:44;;;;;;;2.92;1.60;;;18.50;78.90;;;;;;5034404;28;20490;-79
2022/06/26 04:28:10;;;;;;;1.98;1.40;;;18.50;78.70;;;;;;5034372;28;20442;-79
2022/06/26 04:30:36;;;;;;;2.30;1.35;;;18.60;78.10;;;;;;5034279;28;20056;-80
2022/06/26 04:33:02;;;;;;;2.40;1.33;;;18.50;78.00;;;;;;5034377;28;20049;-79
2022/06/26 04:35:27;;;;;;;3.10;1.23;;;18.50;78.10;;;;;;5034179;28;20475;-79
2022/06/26 04:37:54;;;;;;;1.20;1.10;;;18.50;78.20;;;;;;5034242;28;20048;-79
2022/06/26 04:40:19;;;;;;;3.22;1.38;;;18.50;78.40;;;;;;5034120;28;20052;-79
2022/06/26 04:42:46;;;;;;;3.40;1.15;;;18.50;78.10;;;;;;5034012;28;20470;-79
2022/06/26 04:45:12;;;;;;;2.15;1.27;;;18.50;78.20;;;;;;5034310;28;20486;-78
2022/06/26 04:47:39;;;;;;;1.55;1.20;;;18.60;78.20;;;;;;5034073;28;20580;-79
2022/06/26 04:50:06;;;;;;;1.80;1.20;;;18.60;78.10;;;;;;5033837;28;20037;-79
2022/06/26 04:52:31;;;;;;;3.20;0.82;;;18.60;77.70;;;;;;5033892;28;20033;-79
2022/06/26 04:54:57;;;;;;;1.13;0.82;;;18.60;77.50;;;;;;5016166;28;20048;-79
2022/06/26 04:57:22;;;;;;;1.40;1.10;;;18.60;77.50;;;;;;5033885;28;20057;-79
2022/06/26 04:59:48;;;;;;;0.95;0.95;;;18.70;77.60;;;;;;5033886;28;20021;-80
2022/06/26 05:02:14;;;;;;;1.00;0.90;;;18.70;77.60;;;;;;5033945;28;20470;-79
2022/06/26 05:04:40;;;;;;;0.70;0.70;;;18.90;77.20;;;;;;5033664;28;20029;-80
2022/06/26 05:07:05;;;;;;;1.08;0.80;;;19.10;76.90;;;;;;5033727;28;20017;-79
2022/06/26 05:09:31;;;;;;;1.25;1.13;;;19.20;76.30;;;;;;5033605;28;20030;-79
2022/06/26 05:11:58;;;;;;;1.02;0.95;;;19.40;75.90;;;;;;5033679;28;20033;-80
2022/06/26 05:14:24;;;;;;;1.88;1.10;;;19.50;75.00;;;;;;5033491;28;20022;-79
2022/06/26 05:16:49;;;;;;;3.17;1.42;;;19.50;74.00;;;;;;5033553;28;20029;-80
2022/06/26 05:19:15;;;;;;;1.33;1.05;;;19.60;73.50;;;;;;5033403;28;20105;-79
2022/06/26 05:21:41;;;;;;;1.85;1.23;;;19.60;72.90;;;;;;5033322;28;20425;-80
2022/06/26 05:24:06;;;;;;;1.08;0.90;;;19.60;72.90;;;;;;5033291;28;20033;-80
2022/06/26 05:26:32;;;;;;;1.40;0.80;;;19.60;72.90;;;;;;5033282;28;20022;-79
2022/06/26 05:28:58;;;;;;;1.75;0.85;;;19.60;72.60;;;;;;5033163;28;20026;-79
2022/06/26 05:31:24;;;;;;;0.75;0.75;;;19.70;72.40;;;;;;5033252;28;20021;-79
2022/06/26 05:33:51;;;;;;;0.98;0.85;;;19.80;72.10;;;;;;5033290;28;20145;-80
2022/06/26 05:36:17;;;;;;;2.70;1.05;;;19.90;72.00;;;;;;5033197;28;20096;-79
2022/06/26 05:38:43;;;;;;;1.20;0.90;;;20.00;71.50;;;;;;5033045;28;20029;-80
2022/06/26 05:41:09;;;;;;;1.33;0.95;;;20.10;71.10;;;;;;5033123;28;20500;-80
2022/06/26 05:43:35;;;;;;;1.17;0.70;;;20.20;70.70;;;;;;5032978;28;20043;-79
2022/06/26 05:46:00;;;;;;;4.00;0.70;;;20.30;70.60;;;;;;5033146;28;20017;-79
2022/06/26 05:48:26;;;;;;;1.40;0.80;;;20.40;70.00;;;;;;5032599;28;20493;-79
2022/06/26 05:50:52;;;;;;;0.80;0.80;;;20.50;69.70;;;;;;5032483;28;20069;-78
2022/06/26 05:53:19;;;;;;;1.30;1.02;;;20.60;69.30;;;;;;5014736;28;20033;-79
2022/06/26 05:55:45;;;;;;;1.05;0.95;;;20.70;68.90;;;;;;5032639;28;20100;-79
2022/06/26 05:58:11;;;;;;;4.80;0.90;;;20.80;68.10;;;;;;5032493;28;20025;-78
2022/06/26 06:00:38;;;;;;;2.08;0.90;;;20.80;66.80;;;;;;5032374;28;20017;-78
2022/06/26 06:03:05;;;;;;;0.70;0.70;;;20.90;66.40;;;;;;5032505;28;20071;-80
2022/06/26 06:05:31;;;;;;;1.15;0.65;;;20.80;65.90;;;;;;5032541;28;20021;-79
2022/06/26 06:07:56;;;;;;;0.90;0.70;;;20.80;65.60;;;;;;5032308;28;20068;-79
2022/06/26 06:10:24;;;;;;;0.80;0.80;;;20.90;65.60;;;;;;5032194;28;20033;-79
2022/06/26 06:12:51;;;;;;;0.82;0.70;;;21.00;65.40;;;;;;5032201;28;20029;-79
2022/06/26 06:15:17;;;;;;;0.82;0.55;;;21.00;63.10;;;;;;5032332;28;20033;-79
2022/06/26 06:17:44;;;;;;;1.10;0.60;;;21.00;63.10;;;;;;5034916;28;20014;-80
2022/06/26 06:20:12;;;;;;;0.68;0.68;;;21.00;62.90;;;;;;5036294;28;20029;-79
2022/06/26 06:22:43;;;;;;;2.20;0.57;;;21.10;62.40;;;;;;5036037;28;20474;-79
2022/06/26 06:25:09;;;;;;;0.77;0.50;;;21.10;61.90;;;;;;5036300;28;20053;-79
2022/06/26 06:27:36;;;;;;;0.82;0.40;;;21.20;61.50;;;;;;5036116;28;20033;-79
2022/06/26 06:30:04;;;;;;;0.63;0.60;;;21.40;61.70;;;;;;5036112;28;20041;-79
2022/06/26 06:32:29;;;;;;;0.47;0.40;;;21.40;61.10;;;;;;5035957;28;20465;-79
2022/06/26 06:34:55;;;;;;;1.13;0.52;;;21.60;60.20;;;;;;5036091;28;20100;-80
2022/06/26 06:37:21;;;;;;;1.63;1.00;;;21.70;60.10;;;;;;5036052;28;20347;-79
2022/06/26 06:39:46;;;;;;;1.27;0.90;;;21.60;62.20;;;;;;5036051;28;20450;-78
2022/06/26 06:42:12;;;;;;;1.55;0.70;;;21.60;62.10;;;;;;5035883;28;20021;-79
2022/06/26 06:44:37;;;;;;;1.63;0.68;;;21.50;62.60;;;;;;5035970;28;20095;-79
2022/06/26 06:47:04;;;;;;;1.08;0.63;;;21.50;62.40;;;;;;5035795;28;20064;-79
2022/06/26 06:49:30;;;;;;;0.93;0.80;;;21.70;62.30;;;;;;5035620;28;20494;-79
2022/06/26 06:51:56;;;;;;;0.60;0.60;;;21.80;62.20;;;;;;5035684;28;20034;-78
2022/06/26 06:54:22;;;;;;;1.02;0.75;;;22.00;62.20;;;;;;5035644;28;20475;-79
2022/06/26 06:56:47;;;;;;;0.68;0.68;;;22.10;62.20;;;;;;5035680;28;20037;-79
2022/06/26 06:59:13;;;;;;;2.10;1.00;;;22.00;63.30;;;;;;5035496;28;20017;-79
2022/06/26 07:01:39;;;;;;;1.27;1.10;;;22.00;63.20;;;;;;5035560;28;20029;-78
2022/06/26 07:04:06;;;;;;;2.60;1.10;;;21.90;63.90;;;;;;5035544;28;20038;-79
2022/06/26 07:06:31;;;;;;;1.15;0.80;;;22.00;63.80;;;;;;5035596;28;20022;-82
2022/06/26 07:08:57;;;;;;;1.30;1.00;;;22.20;64.50;;;;;;5035473;28;20147;-81
2022/06/26 07:11:22;;;;;;;1.38;0.90;;;22.30;63.80;;;;;;5017546;28;20072;-81
2022/06/26 07:13:48;;;;;;;2.00;0.80;;;22.30;63.80;;;;;;5035430;28;20030;-81
2022/06/26 07:16:13;;;;;;;2.65;0.90;;;22.40;63.40;;;;;;5035358;28;20470;-81
2022/06/26 07:18:39;;;;;;;1.67;0.80;;;22.20;64.30;;;;;;5035257;28;20025;-81
2022/06/26 07:21:05;;;;;;;3.20;1.08;;;22.30;63.50;;;;;;5035234;28;20029;-81
2022/06/26 07:23:31;;;;;;;2.00;0.93;;;22.40;63.00;;;;;;5035153;28;20040;-81
2022/06/26 07:25:56;;;;;;;1.00;0.90;;;22.30;63.40;;;;;;5035172;28;20025;-81
2022/06/26 07:28:23;;;;;;;0.98;0.80;;;22.30;63.80;;;;;;5033932;28;20034;-80
2022/06/26 07:30:48;;;;;;;0.95;0.52;;;22.50;62.90;;;;;;5035077;28;20025;-81
2022/06/26 07:35:58;;;;;;;0.73;0.73;;;22.70;62.00;;;;;;5035105;28;20024;-81
2022/06/26 07:38:24;;;;;;;1.33;0.68;;;22.70;61.40;;;;;;5034978;28;20025;-81
2022/06/26 07:40:51;;;;;;;2.58;0.70;;;22.80;61.10;;;;;;5034981;28;20028;-81
2022/06/26 07:43:16;;;;;;;2.25;0.70;;;22.90;59.20;;;;;;5034900;28;20065;-78
2022/06/26 07:45:42;;;;;;;0.75;0.70;;;23.10;59.10;;;;;;5034826;28;20053;-80
2022/06/26 07:48:08;;;;;;;4.63;0.70;;;23.20;58.30;;;;;;5034739;28;20030;-80
2022/06/26 07:50:33;;;;;;;1.38;0.60;;;23.30;57.10;;;;;;5034556;28;20041;-81
2022/06/26 07:52:59;;;;;;;0.70;0.70;;;23.10;57.10;;;;;;5034698;28;20037;-81
2022/06/26 07:55:24;;;;;;;0.60;0.60;;;23.10;58.10;;;;;;5034577;28;20040;-79
2022/06/26 07:57:50;;;;;;;1.75;0.82;;;23.10;57.60;;;;;;5034538;28;20033;-79
2022/06/26 08:00:16;;;;;;;0.60;0.60;;;23.10;56.60;;;;;;5034559;28;20485;-79
2022/06/26 08:02:41;;;;;;;1.08;0.98;;;23.20;56.10;;;;;;5035166;28;20060;-80
2022/06/26 08:05:07;;;;;;;1.23;0.80;;;23.40;56.80;;;;;;5034805;28;20060;-80
2022/06/26 08:07:33;;;;;;;2.47;0.75;;;23.70;55.50;;;;;;5035040;28;20025;-79
2022/06/26 08:09:59;;;;;;;0.52;0.52;;;24.00;54.60;;;;;;5034848;28;20087;-79
2022/06/26 08:12:24;;;;;;;1.80;0.77;;;24.20;54.20;;;;;;5034832;28;20477;-79
2022/06/26 08:14:50;;;;;;;0.70;0.40;;;24.30;52.50;;;;;;5016918;28;20025;-79
2022/06/26 08:17:15;;;;;;;1.65;0.55;;;24.20;52.20;;;;;;5034656;28;20352;-80
2022/06/26 08:19:41;;;;;;;1.27;0.40;;;24.20;50.70;;;;;;5034637;28;20470;-80
2022/06/26 08:22:07;;;;;;;2.30;1.60;;;24.10;53.30;;;;;;5034389;28;20425;-79
2022/06/26 08:24:33;;;;;;;1.08;0.57;;;23.90;52.70;;;;;;5034464;28;20045;-79
2022/06/26 08:27:00;;;;;;;1.05;0.75;;;23.80;52.30;;;;;;5034513;28;20029;-79
2022/06/26 08:29:26;;;;;;;0.60;0.60;;;23.70;53.00;;;;;;5034223;28;20394;-80
2022/06/26 08:31:51;;;;;;;0.50;0.50;;;23.70;53.00;;;;;;5034416;28;20021;-79
2022/06/26 08:34:17;;;;;;;1.30;0.50;;;23.60;53.50;;;;;;5034218;28;20028;-80
2022/06/26 08:36:43;;;;;;;1.95;0.60;;;23.70;53.70;;;;;;5034291;28;20068;-80
2022/06/26 08:39:08;;;;;;;3.58;0.70;;;23.70;53.60;;;;;;5016045;28;20466;-81
2022/06/26 08:41:40;;;;;;;0.60;0.60;;;23.60;53.30;;;;;;5034136;28;20051;-80
2022/06/26 08:44:06;;;;;;;1.17;0.50;;;23.60;53.90;;;;;;5034028;28;20033;-81
2022/06/26 08:46:36;;;;;;;0.40;0.40;;;23.70;53.10;;;;;;5034064;28;20025;-81
2022/06/26 08:49:10;;;;;;;0.50;0.50;;;23.90;53.20;;;;;;5033824;28;20485;-80
2022/06/26 08:51:39;;;;;;;1.17;0.70;;;24.00;53.50;;;;;;5033989;28;20025;-79
2022/06/26 08:54:05;;;;;;;2.00;0.57;;;24.20;52.90;;;;;;5033870;28;20037;-80
2022/06/26 08:56:32;;;;;;;0.65;0.60;;;24.30;52.50;;;;;;5033723;28;20018;-80
2022/06/26 08:58:58;;;;;;;0.90;0.63;;;24.30;52.20;;;;;;5033728;28;20366;-80
2022/06/26 09:01:23;;;;;;;1.10;0.40;;;24.30;52.70;;;;;;5033747;28;20030;-81
2022/06/26 09:03:49;;;;;;;1.05;0.50;;;24.40;53.00;;;;;;5033614;28;20034;-81
2022/06/26 09:06:14;;;;;;;0.60;0.60;;;24.60;51.30;;;;;;5033721;28;20386;-81
2022/06/26 09:08:45;;;;;;;0.57;0.57;;;24.60;51.30;;;;;;5015908;28;20029;-81
2022/06/26 09:11:11;;;;;;;0.57;0.52;;;24.50;52.40;;;;;;5033563;28;20065;-80
2022/06/26 09:13:42;;;;;;;0.98;0.52;;;24.60;52.40;;;;;;5033516;28;20534;-78
2022/06/26 09:16:08;;;;;;;1.75;0.70;;;24.70;52.10;;;;;;5033463;28;20068;-81
2022/06/26 09:18:38;;;;;;;1.75;0.75;;;24.60;51.60;;;;;;5033380;28;20462;-80
2022/06/26 09:21:05;;;;;;;0.88;0.73;;;24.50;52.00;;;;;;5033337;28;20108;-81
2022/06/26 09:23:32;;;;;;;1.33;0.63;;;24.70;52.40;;;;;;5033224;28;20394;-80
2022/06/26 09:25:59;;;;;;;0.77;0.70;;;24.80;52.10;;;;;;5033341;28;20064;-81
2022/06/26 09:28:25;;;;;;;0.60;0.60;;;24.80;52.40;;;;;;5033257;28;20033;-80
2022/06/26 09:30:55;;;;;;;3.65;1.05;;;24.60;53.10;;;;;;5033305;28;20021;-81
2022/06/26 09:33:23;;;;;;;0.80;0.80;;;24.50;53.50;;;;;;5033291;28;20026;-81
2022/06/26 09:35:49;;;;;;;1.00;0.77;;;24.60;52.80;;;;;;5033233;28;20466;-81
2022/06/26 09:38:16;;;;;;;1.00;0.90;;;24.70;53.50;;;;;;5033143;28;20040;-81
2022/06/26 09:40:50;;;;;;;1.23;0.68;;;24.70;53.80;;;;;;5015407;28;20402;-81
2022/06/26 09:43:27;;;;;;;1.33;0.73;;;24.70;53.60;;;;;;5033114;28;20034;-81
2022/06/26 09:45:54;;;;;;;2.45;0.63;;;24.80;53.60;;;;;;5033255;28;20083;-80
2022/06/26 09:48:22;;;;;;;1.42;0.70;;;24.90;52.80;;;;;;5033313;28;20035;-81
2022/06/26 09:50:48;;;;;;;1.00;0.90;;;24.90;54.70;;;;;;5032474;28;20041;-81
2022/06/26 09:53:14;;;;;;;2.08;1.05;;;25.00;52.20;;;;;;5032840;28;20022;-80
2022/06/26 09:55:40;;;;;;;1.38;0.80;;;25.00;53.20;;;;;;5032920;28;20060;-79
2022/06/26 09:58:08;;;;;;;1.88;0.65;;;25.20;52.80;;;;;;5033022;28;20037;-80
2022/06/26 10:00:35;;;;;;;1.45;0.68;;;25.50;51.60;;;;;;5032851;28;20037;-80
2022/06/26 10:08:36;;;;;;;1.15;0.80;;;26.30;49.30;;;;;;5032968;28;20080;-81
2022/06/26 10:11:05;;;;;;;1.17;0.80;;;26.40;48.40;;;;;;5032851;28;20025;-81
2022/06/26 10:13:33;;;;;;;0.80;0.70;;;26.40;47.60;;;;;;5032726;28;20032;-81
2022/06/26 10:16:08;;;;;;;2.08;0.60;;;26.60;48.30;;;;;;5032753;28;20025;-81
2022/06/26 10:19:15;;;;;;;3.20;1.10;;;26.90;48.20;;;;;;5015071;28;20504;-81
2022/06/26 10:21:40;;;;;;;0.77;0.50;;;27.00;48.30;;;;;;4991247;28;20066;-81
2022/06/26 10:24:07;;;;;;;1.08;0.80;;;27.30;47.80;;;;;;5023997;28;20142;-81
2022/06/26 10:26:33;;;;;;;1.58;0.60;;;27.30;45.60;;;;;;5032705;28;20051;-81
2022/06/26 10:28:58;;;;;;;2.88;0.80;;;27.40;45.50;;;;;;5032769;28;20018;-81
2022/06/26 10:31:24;;;;;;;1.20;1.10;;;27.30;47.40;;;;;;5032627;28;20031;-81
2022/06/26 10:33:50;;;;;;;1.08;0.98;;;27.20;46.80;;;;;;5014895;28;20044;-81
2022/06/26 10:36:23;;;;;;;2.15;0.95;;;27.00;48.20;;;;;;5032619;28;20034;-80
2022/06/26 10:38:48;;;;;;;1.88;0.88;;;27.00;48.50;;;;;;5032553;28;20506;-81
2022/06/26 10:44:14;;;;;;;1.27;0.85;;;26.80;49.00;;;;;;5032546;28;20049;-81
2022/06/26 10:46:50;;;;;;;2.08;0.60;;;27.20;49.80;;;;;;5032455;28;20017;-81
2022/06/26 10:49:16;;;;;;;2.17;0.70;;;27.50;46.90;;;;;;5032367;28;20086;-81
2022/06/26 10:51:44;;;;;;;0.77;0.52;;;27.70;45.70;;;;;;5032488;28;20041;-80
2022/06/26 10:54:22;;;;;;;0.75;0.60;;;27.90;45.10;;;;;;5032464;28;20021;-80
2022/06/26 10:57:15;;;;;;;0.70;0.70;;;28.00;45.10;;;;;;5032638;28;20429;-82
2022/06/26 10:59:42;;;;;;;0.93;0.90;;;28.30;44.40;;;;;;5032412;28;20032;-81
2022/06/26 11:02:10;;;;;;;0.63;0.63;;;28.40;43.50;;;;;;5032452;28;20025;-81
2022/06/26 11:04:49;;;;;;;0.88;0.85;;;28.50;43.00;;;;;;5036176;28;20516;-80
2022/06/26 11:07:16;;;;;;;0.77;0.52;;;28.40;43.10;;;;;;5036032;28;20064;-80
2022/06/26 11:09:42;;;;;;;1.17;0.85;;;28.60;43.10;;;;;;5035938;28;20412;-80
2022/06/26 11:12:08;;;;;;;0.95;0.70;;;28.60;42.40;;;;;;5036018;28;20359;-81
2022/06/26 11:14:34;;;;;;;1.67;0.80;;;28.40;43.10;;;;;;5035827;28;20036;-80
2022/06/26 11:17:00;;;;;;;1.80;0.82;;;28.50;43.30;;;;;;5035913;28;20428;-82
2022/06/26 11:19:28;;;;;;;0.75;0.70;;;28.60;42.40;;;;;;5035757;28;20032;-83
2022/06/26 11:22:11;;;;;;;2.17;0.60;;;28.20;42.60;;;;;;5035848;28;20025;-81
2022/06/26 11:24:52;;;;;;;0.77;0.63;;;28.20;43.20;;;;;;5035633;28;20543;-80
2022/06/26 11:27:25;;;;;;;2.15;0.90;;;28.50;43.40;;;;;;5035713;28;20105;-82
2022/06/26 11:29:54;;;;;;;0.57;0.57;;;28.70;43.00;;;;;;5035564;28;20021;-80
2022/06/26 11:32:21;;;;;;;5.45;1.17;;;29.00;42.20;;;;;;5035615;28;20030;-79
2022/06/26 11:34:53;;;;;;;1.20;0.80;;;29.10;41.80;;;;;;5035524;28;20029;-81
2022/06/26 11:37:36;;;;;;;0.68;0.68;;;29.30;41.50;;;;;;5035628;28;20462;-81
2022/06/26 11:40:18;;;;;;;0.88;0.60;;;29.50;40.50;;;;;;5035530;28;20497;-81
2022/06/26 11:42:43;;;;;;;0.70;0.60;;;29.70;39.90;;;;;;5035299;28;20022;-81
2022/06/26 11:45:09;;;;;;;1.13;0.80;;;29.60;40.40;;;;;;5035306;28;20033;-81
2022/06/26 11:47:37;;;;;;;1.35;0.90;;;29.60;40.40;;;;;;5035417;28;20068;-81
2022/06/26 11:50:03;;;;;;;0.95;0.80;;;29.60;40.30;;;;;;5035187;28;20056;-82
2022/06/26 11:52:29;;;;;;;1.00;0.90;;;29.40;39.60;;;;;;5035168;28;20021;-81
2022/06/26 11:55:00;;;;;;;2.13;1.00;;;28.80;40.60;;;;;;5035291;28;20100;-82
2022/06/26 11:57:25;;;;;;;1.45;1.00;;;28.50;41.80;;;;;;5035339;28;20017;-81
2022/06/26 11:59:51;;;;;;;1.00;0.90;;;28.00;44.00;;;;;;5035161;28;20104;-80
2022/06/26 12:02:20;;;;;;;1.92;0.80;;;27.90;44.30;;;;;;5035080;28;20537;-81
2022/06/26 12:04:56;;;;;;;3.13;0.70;;;28.10;44.30;;;;;;5035066;28;20034;-80
2022/06/26 12:07:22;;;;;;;2.28;1.25;;;28.40;42.40;;;;;;5034986;28;20033;-81
2022/06/26 12:09:47;;;;;;;1.38;0.75;;;28.50;42.40;;;;;;5034885;28;20025;-81
2022/06/26 12:12:13;;;;;;;1.02;0.90;;;28.60;43.30;;;;;;5034984;28;20104;-80
2022/06/26 12:14:49;;;;;;;1.10;1.00;;;28.50;42.50;;;;;;5039058;28;20018;-80
2022/06/26 12:17:21;;;;;;;1.30;0.93;;;28.50;43.50;;;;;;5017799;28;20032;-81
2022/06/26 12:19:47;;;;;;;1.13;0.70;;;29.00;43.10;;;;;;5036421;28;20478;-81
2022/06/26 12:22:13;;;;;;;2.83;0.75;;;29.50;41.20;;;;;;5035603;28;20060;-80
2022/06/26 12:24:51;;;;;;;1.23;0.75;;;29.80;40.60;;;;;;5035432;28;20037;-81
2022/06/26 12:27:17;;;;;;;0.60;0.60;;;29.90;40.00;;;;;;5035131;28;20022;-82
2022/06/26 12:29:42;;;;;;;1.00;0.90;;;29.10;40.50;;;;;;5034987;28;20048;-81
2022/06/26 12:32:08;;;;;;;1.17;1.08;;;28.70;40.40;;;;;;5034819;28;20079;-81
2022/06/26 12:34:33;;;;;;;1.13;0.70;;;28.30;41.40;;;;;;5034659;28;20175;-80
2022/06/26 12:36:59;;;;;;;2.20;1.10;;;28.30;42.10;;;;;;5016878;28;20036;-81
2022/06/26 12:39:24;;;;;;;1.83;1.23;;;28.30;42.40;;;;;;5034623;28;20018;-81
2022/06/26 12:41:50;;;;;;;0.70;0.70;;;28.40;42.10;;;;;;5034638;28;20040;-81
2022/06/26 12:44:15;;;;;;;0.88;0.70;;;28.60;41.90;;;;;;5034533;28;20045;-81
2022/06/26 12:46:41;;;;;;;1.88;0.73;;;29.10;41.70;;;;;;5034533;28;20028;-81
2022/06/26 12:49:06;;;;;;;1.45;0.95;;;29.50;40.40;;;;;;5034021;28;20029;-80
2022/06/26 12:51:32;;;;;;;1.23;0.60;;;29.80;40.20;;;;;;5034436;28;20103;-80
2022/06/26 12:53:58;;;;;;;3.65;1.00;;;30.00;39.80;;;;;;5035167;28;20084;-81
2022/06/26 12:56:23;;;;;;;2.50;0.77;;;30.40;39.50;;;;;;5034883;28;20025;-79
2022/06/26 12:58:49;;;;;;;0.80;0.70;;;30.70;38.70;;;;;;5034681;28;20026;-81